This is the latest recevied weather packets stored in our database for station/object WX7FGZ-3. If no packets are shown the sender has not sent any weather packets the latest 10 day(s).
| Time | Temp. | Humidity | Pressure | Rain* | Wind** | Luminosity | Snow |
|---|---|---|---|---|---|---|---|
| 1777893545 | 8.33° C | 51% | 1007.2 hPa | 0 mm | - | - | - |
| 1777893456 | 8.33° C | 50% | 1007.2 hPa | 0 mm | - | - | - |
| 1777893244 | 8.33° C | 50% | 1007.2 hPa | 0 mm | - | - | - |
| 1777893189 | 8.33° C | 50% | 1007.4 hPa | 0 mm | - | - | - |
| 1777892944 | 8.33° C | 50% | 1007.4 hPa | 0 mm | - | - | - |
| 1777892706 | 6.67° C | 58% | 1007.6 hPa | 0 mm | - | - | - |
| 1777892687 | 7.78° C | 51% | 1007.7 hPa | 0 mm | - | - | - |
| 1777892669 | 6.67° C | 58% | 1007.6 hPa | 0 mm | - | - | - |
| 1777892644 | 7.78° C | 51% | 1007.7 hPa | 0 mm | - | - | - |
| 1777892344 | 7.22° C | 53% | 1007.8 hPa | 0 mm | - | - | - |
| 1777892043 | 6.67° C | 58% | 1007.6 hPa | 0 mm | - | - | - |
| 1777891784 | 6.67° C | 60% | 1007.3 hPa | 0 mm | - | - | - |
| 1777891743 | 6.67° C | 60% | 1007.3 hPa | 0 mm | - | - | - |
| 1777891259 | 7.22° C | 58% | 1007.1 hPa | 0 mm | - | - | - |
| 1777891143 | 7.22° C | 58% | 1007.1 hPa | 0 mm | - | - | - |
| 1777890842 | 7.22° C | 57% | 1007.1 hPa | 0 mm | - | - | - |
| 1777890542 | 7.22° C | 56% | 1007.1 hPa | 0 mm | - | - | - |
| 1777890242 | 7.22° C | 56% | 1007 hPa | 0 mm | - | - | - |
| 1777890233 | 7.22° C | 57% | 1006.9 hPa | 0 mm | - | - | - |
| 1777889941 | 7.22° C | 56% | 1007 hPa | 0 mm | - | - | - |
| 1777889641 | 7.22° C | 57% | 1006.9 hPa | 0 mm | - | - | - |
| 1777889340 | 7.22° C | 58% | 1006.8 hPa | 0 mm | - | - | - |
| 1777888774 | 6.67° C | 60% | 1006.4 hPa | 0 mm | - | - | - |
| 1777888764 | 7.22° C | 60% | 1006.3 hPa | 0 mm | - | - | - |
| 1777888740 | 6.67° C | 60% | 1006.4 hPa | 0 mm | - | - | - |
* Rain latest hour (hover to see other rain measurements)
** Current wind speed in m/s (hover to see current wind gust speed)